createdAt,value
2023-04-30T00:03:53.681Z,14.10
2023-04-30T00:08:56.406Z,13.10
2023-04-30T00:13:59.078Z,11.95
2023-04-30T00:19:01.450Z,6.63
2023-04-30T00:24:04.152Z,11.98
2023-04-30T00:29:07.198Z,8.93
2023-04-30T00:34:09.977Z,8.90
2023-04-30T00:39:12.878Z,8.23
2023-04-30T00:44:15.109Z,6.95
2023-04-30T00:49:17.775Z,10.25
2023-04-30T00:54:21.708Z,8.07
2023-04-30T00:59:25.476Z,10.27
2023-04-30T01:04:29.060Z,8.07
2023-04-30T01:09:32.673Z,8.73
2023-04-30T01:14:48.497Z,14.00
2023-04-30T01:19:51.505Z,8.70
2023-04-30T01:25:13.033Z,9.98
2023-04-30T01:30:17.212Z,9.05
2023-04-30T01:35:19.839Z,7.57
2023-04-30T01:40:28.757Z,7.68
2023-04-30T01:45:43.520Z,11.77
2023-04-30T01:51:02.379Z,15.25
2023-04-30T01:56:09.137Z,7.35
2023-04-30T02:01:27.616Z,8.45
2023-04-30T02:06:31.547Z,9.20
2023-04-30T02:11:34.693Z,9.23
2023-04-30T02:16:37.457Z,8.77
2023-04-30T02:21:40.271Z,7.80
2023-04-30T02:26:43.051Z,12.45
2023-04-30T02:31:45.813Z,8.32
2023-04-30T02:36:48.070Z,8.77
2023-04-30T02:41:50.767Z,6.65
2023-04-30T02:46:53.410Z,8.57
2023-04-30T02:51:56.608Z,8.40
2023-04-30T02:56:58.848Z,14.73
2023-04-30T03:02:01.778Z,7.88
2023-04-30T03:07:04.481Z,9.73
2023-04-30T03:12:07.119Z,7.78
2023-04-30T03:17:09.935Z,8.10
2023-04-30T03:22:12.617Z,7.88
2023-04-30T03:27:17.195Z,6.60
2023-04-30T03:32:19.910Z,9.93
2023-04-30T03:37:22.628Z,8.52
2023-04-30T03:42:25.365Z,6.97
2023-04-30T03:47:27.602Z,9.20
2023-04-30T03:52:31.804Z,8.23
2023-04-30T03:57:34.386Z,7.45
2023-04-30T04:02:38.165Z,9.45
2023-04-30T04:07:41.612Z,8.77
2023-04-30T04:12:44.540Z,6.15
2023-04-30T04:17:47.240Z,7.53
2023-04-30T04:22:50.314Z,6.88
2023-04-30T04:27:53.081Z,9.38
2023-04-30T04:32:55.846Z,8.45
2023-04-30T04:37:58.150Z,9.20
2023-04-30T04:43:00.898Z,10.73
2023-04-30T04:48:03.559Z,8.38
2023-04-30T04:53:06.485Z,14.65
2023-04-30T04:58:08.760Z,5.30
2023-04-30T05:03:11.479Z,9.52
2023-04-30T05:08:14.158Z,8.68
2023-04-30T05:13:16.345Z,7.93
2023-04-30T05:18:19.085Z,4.68
2023-04-30T05:23:21.968Z,9.35
2023-04-30T05:28:24.668Z,6.53
2023-04-30T05:33:27.734Z,4.63
2023-04-30T05:38:30.458Z,4.95
2023-04-30T05:43:33.168Z,7.75
2023-04-30T05:48:35.399Z,5.72
2023-04-30T05:53:37.946Z,3.90
2023-04-30T05:58:40.421Z,4.82
2023-04-30T06:03:43.103Z,3.65
2023-04-30T06:08:45.868Z,3.20
2023-04-30T06:13:49.760Z,3.78
2023-04-30T06:18:53.686Z,6.90
2023-04-30T06:23:56.818Z,2.97
2023-04-30T06:28:59.001Z,5.85
2023-04-30T06:34:01.691Z,3.63
2023-04-30T06:39:05.647Z,6.03
2023-04-30T06:44:09.548Z,6.15
2023-04-30T06:49:12.278Z,8.05
2023-04-30T06:54:15.063Z,4.60
2023-04-30T06:59:18.138Z,2.83
2023-04-30T07:04:20.652Z,3.45
2023-04-30T07:09:23.120Z,4.90
2023-04-30T07:14:25.774Z,3.53
2023-04-30T07:19:27.854Z,6.85
2023-04-30T07:24:31.654Z,6.25
2023-04-30T07:29:34.636Z,4.65
2023-04-30T07:34:37.232Z,2.85
2023-04-30T07:39:39.999Z,3.78
2023-04-30T07:44:42.653Z,5.00
2023-04-30T07:49:45.372Z,5.75
2023-04-30T07:54:47.989Z,3.75
2023-04-30T07:59:51.418Z,4.82
2023-04-30T08:04:55.896Z,6.30
2023-04-30T08:09:58.514Z,4.43
2023-04-30T08:15:03.542Z,4.25
2023-04-30T08:20:07.338Z,4.32
2023-04-30T08:25:12.986Z,3.45
2023-04-30T08:30:15.722Z,5.15
2023-04-30T08:35:18.455Z,2.53
2023-04-30T08:40:23.561Z,4.47
2023-04-30T08:45:29.267Z,4.13
2023-04-30T08:50:32.496Z,3.42
2023-04-30T08:55:35.562Z,3.42
2023-04-30T09:00:39.980Z,4.20
2023-04-30T09:05:42.796Z,3.58
2023-04-30T09:10:45.516Z,3.85
2023-04-30T09:15:52.401Z,6.68
2023-04-30T09:21:02.194Z,3.78
2023-04-30T09:26:04.963Z,4.60
2023-04-30T09:31:22.381Z,4.20
2023-04-30T09:36:25.098Z,5.93
2023-04-30T09:41:29.614Z,2.90
2023-04-30T09:46:34.885Z,3.05
2023-04-30T09:51:54.851Z,2.85
2023-04-30T09:56:59.538Z,3.13
2023-04-30T10:02:04.706Z,3.55
2023-04-30T10:07:12.516Z,3.65
2023-04-30T10:12:23.830Z,5.35
2023-04-30T10:17:29.909Z,4.55
2023-04-30T10:22:35.352Z,3.05
2023-04-30T10:27:38.282Z,2.90
2023-04-30T10:32:56.353Z,3.33
2023-04-30T10:38:16.296Z,2.65
2023-04-30T10:43:20.172Z,4.15
2023-04-30T10:48:27.578Z,4.15
2023-04-30T10:53:34.029Z,5.28
2023-04-30T10:58:39.644Z,3.92
2023-04-30T11:04:03.306Z,5.80
2023-04-30T11:09:05.947Z,3.60
2023-04-30T11:14:11.628Z,4.43
2023-04-30T11:19:15.269Z,3.83
2023-04-30T11:24:20.401Z,5.50
2023-04-30T11:29:23.126Z,3.33
2023-04-30T11:34:26.231Z,4.07
2023-04-30T11:39:30.038Z,3.22
2023-04-30T11:44:32.871Z,4.15
2023-04-30T11:49:35.717Z,7.07
2023-04-30T11:54:38.489Z,4.53
2023-04-30T11:59:42.508Z,4.75
2023-04-30T12:04:45.510Z,4.07
2023-04-30T12:09:57.741Z,2.90
2023-04-30T12:15:12.528Z,5.13
2023-04-30T12:20:16.069Z,3.80
2023-04-30T12:25:20.988Z,5.00
2023-04-30T12:30:27.355Z,7.55
2023-04-30T12:35:32.700Z,4.88
2023-04-30T12:40:35.926Z,5.35
2023-04-30T12:45:56.034Z,5.05
2023-04-30T12:51:01.428Z,6.97
2023-04-30T12:56:17.754Z,3.20
2023-04-30T13:01:23.299Z,3.60
2023-04-30T13:06:27.856Z,4.13
2023-04-30T13:11:30.409Z,4.18
2023-04-30T13:16:33.254Z,4.35
2023-04-30T13:21:35.971Z,6.78
2023-04-30T13:26:38.133Z,3.38
2023-04-30T13:31:42.609Z,4.28
2023-04-30T13:36:47.086Z,4.93
2023-04-30T13:41:49.639Z,3.25
2023-04-30T13:46:52.447Z,5.57
2023-04-30T13:51:55.120Z,3.13
2023-04-30T13:56:59.889Z,4.28
2023-04-30T14:02:02.750Z,5.70
2023-04-30T14:07:04.995Z,4.13
2023-04-30T14:12:07.636Z,3.55
2023-04-30T14:17:09.923Z,5.32
2023-04-30T14:22:12.773Z,14.57
2023-04-30T14:27:15.619Z,208.38
2023-04-30T14:32:18.528Z,193.13
2023-04-30T14:37:20.874Z,97.78
2023-04-30T14:42:26.737Z,42.42
2023-04-30T14:47:29.289Z,36.88
2023-04-30T14:52:36.641Z,14.60
2023-04-30T14:57:39.594Z,6.10
2023-04-30T15:02:42.251Z,5.25
2023-04-30T15:07:44.779Z,6.05
2023-04-30T15:12:47.421Z,6.13
2023-04-30T15:17:49.755Z,7.65
2023-04-30T15:22:55.118Z,5.47
2023-04-30T15:27:58.542Z,4.03
2023-04-30T15:33:01.251Z,3.17
2023-04-30T15:38:03.536Z,6.60
2023-04-30T15:43:06.530Z,9.23
2023-04-30T15:48:09.362Z,11.05
2023-04-30T15:53:11.577Z,8.63
2023-04-30T15:58:14.130Z,11.63
2023-04-30T16:03:16.953Z,49.03
2023-04-30T16:08:20.002Z,20.15
2023-04-30T16:13:22.270Z,12.18
2023-04-30T16:18:25.127Z,6.57
2023-04-30T16:23:28.717Z,4.07
2023-04-30T16:28:31.508Z,4.32
2023-04-30T16:33:34.081Z,3.67
2023-04-30T16:38:37.328Z,9.90
2023-04-30T16:43:40.175Z,6.20
2023-04-30T16:48:42.826Z,8.50
2023-04-30T16:53:45.609Z,6.57
2023-04-30T16:58:48.323Z,25.98
2023-04-30T17:03:51.622Z,6.45
2023-04-30T17:08:54.776Z,7.97
2023-04-30T17:13:58.395Z,8.43
2023-04-30T17:19:00.939Z,6.70
2023-04-30T17:24:04.031Z,8.55
2023-04-30T17:29:06.816Z,9.65
2023-04-30T17:34:09.122Z,6.78
2023-04-30T17:39:12.992Z,12.98
2023-04-30T17:44:19.691Z,14.02
2023-04-30T17:49:22.224Z,8.38
2023-04-30T17:54:25.833Z,10.50
2023-04-30T17:59:30.521Z,9.95
2023-04-30T18:04:32.757Z,12.88
2023-04-30T18:09:36.244Z,12.57
2023-04-30T18:14:38.989Z,61.47
2023-04-30T18:19:44.775Z,9.38
2023-04-30T18:24:47.496Z,11.57
2023-04-30T18:29:50.493Z,16.52
2023-04-30T18:34:52.615Z,13.43
2023-04-30T18:39:55.925Z,11.70
2023-04-30T18:44:59.079Z,10.93
2023-04-30T18:50:01.268Z,12.45
2023-04-30T18:55:06.681Z,10.70
2023-04-30T19:00:10.662Z,15.82
2023-04-30T19:05:14.408Z,14.18
2023-04-30T19:10:17.078Z,9.48
2023-04-30T19:15:19.930Z,9.77
2023-04-30T19:20:22.577Z,10.45
2023-04-30T19:25:27.859Z,13.07
2023-04-30T19:30:30.763Z,9.07
2023-04-30T19:35:35.455Z,11.52
2023-04-30T19:40:38.083Z,12.05
2023-04-30T19:45:57.627Z,10.32
2023-04-30T19:51:09.627Z,8.93
2023-04-30T19:56:12.645Z,12.25
2023-04-30T20:01:15.546Z,13.20
2023-04-30T20:06:18.830Z,9.88
2023-04-30T20:11:21.571Z,11.05
2023-04-30T20:16:24.313Z,12.90
2023-04-30T20:21:33.189Z,10.95
2023-04-30T20:26:38.373Z,10.80
2023-04-30T20:31:46.083Z,10.98
2023-04-30T20:36:49.777Z,11.30
2023-04-30T20:41:55.386Z,9.75
2023-04-30T20:46:58.261Z,8.50
2023-04-30T20:52:00.816Z,12.77
2023-04-30T20:57:03.418Z,10.40
2023-04-30T21:02:06.134Z,7.50
2023-04-30T21:07:08.471Z,9.10
2023-04-30T21:12:11.979Z,10.98
2023-04-30T21:22:45.872Z,11.60
2023-04-30T21:27:52.501Z,8.70
2023-04-30T21:33:01.104Z,8.35
2023-04-30T21:38:06.768Z,9.25
2023-04-30T21:43:12.033Z,8.68
2023-04-30T21:48:58.176Z,15.10
2023-04-30T21:54:00.771Z,10.55
2023-04-30T21:59:03.396Z,6.72
2023-04-30T22:04:06.459Z,11.85
2023-04-30T22:09:11.544Z,9.48
2023-04-30T22:14:14.175Z,7.03
2023-04-30T22:19:17.022Z,10.57
2023-04-30T22:24:19.735Z,9.52
2023-04-30T22:29:21.829Z,7.88
2023-04-30T22:34:24.409Z,9.90
2023-04-30T22:39:26.938Z,7.95
2023-04-30T22:44:30.044Z,8.23
2023-04-30T22:49:33.146Z,8.00
2023-04-30T22:54:36.233Z,9.88
2023-04-30T22:59:39.773Z,8.80
2023-04-30T23:04:42.354Z,7.72
2023-04-30T23:09:45.602Z,14.63
2023-04-30T23:14:48.365Z,9.05
2023-04-30T23:19:50.764Z,9.25
2023-04-30T23:24:53.473Z,10.77
2023-04-30T23:29:56.432Z,7.97
2023-04-30T23:34:59.386Z,7.97
2023-04-30T23:40:01.797Z,9.05
2023-04-30T23:45:04.732Z,16.63
2023-04-30T23:50:08.126Z,9.70
2023-04-30T23:55:11.404Z,9.82
